WetterOnline ( https://www.wetteronline.de )

Wetter aktuell Regen

Aktuelles Wetter: Zwiesel (613m)

6-stündlich | Neueste Meldungen
Ortszeit Temperatur Wetter
Fr, 21.06. 20:00 22.5° C bewölkt
Fr, 21.06. 14:00 27.3° C fast wolkenlos
Fr, 21.06. 8:00 20.2° C wolkenlos
Fr, 21.06. 2:00 17.0° C bewölkt
Do, 20.06. 20:00 23.6° C bewölkt
Do, 20.06. 14:00 26.2° C wolkig
Do, 20.06. 8:00 16.1° C wolkig
Do, 20.06. 2:00 17.6° C bewölkt
Ortszeit Temperatur Wetter
Fr, 21.06. 23:30 16.2° C bewölkt
Fr, 21.06. 23:20 16.2° C bewölkt
Fr, 21.06. 23:10 16.3° C Sprühregen
Fr, 21.06. 23:00 16.7° C starker Regen
Fr, 21.06. 22:50 16.7° C starker Regen
Fr, 21.06. 22:40 18.0° C leichter Regen
Fr, 21.06. 22:30 19.2° C bedeckt
Fr, 21.06. 22:00 19.6° C wolkig
Fr, 21.06. 21:30 19.3° C wolkenlos
Fr, 21.06. 21:00 20.6° C leicht bewölkt
Fr, 21.06. 20:30 21.9° C wolkig
Ortszeit Relative Feuchte Sichtweite
Fr, 21.06. 20:00 53% 40 km
Fr, 21.06. 14:00 62% 50 km
Fr, 21.06. 8:00 80% 30 km
Fr, 21.06. 2:00 96% 18 km
Do, 20.06. 20:00 70% 50 km
Do, 20.06. 14:00 57% 40 km
Do, 20.06. 8:00 83% 45 km
Do, 20.06. 2:00 83% 40 km
Ortszeit Relative Feuchte Sichtweite
Fr, 21.06. 23:30 93% 45 km
Fr, 21.06. 23:20 93% -
Fr, 21.06. 23:10 93% -
Fr, 21.06. 23:00 87% 3.1 km
Fr, 21.06. 22:50 87% -
Fr, 21.06. 22:40 79% -
Fr, 21.06. 22:30 69% 45 km
Fr, 21.06. 22:00 67% 45 km
Fr, 21.06. 21:30 67% 50 km
Fr, 21.06. 21:00 60% 50 km
Fr, 21.06. 20:30 54% 50 km
Ortszeit Niederschlagsmenge Niederschlagsart
Fr, 21.06. 20:00 0.1 l/m2 in 12 Std. -
Fr, 21.06. 14:00 0.1 l/m2 in 6 Std. Regen, Niederschlag
Fr, 21.06. 8:00 0.0 l/m2 in 12 Std. -
Fr, 21.06. 2:00 0.0 l/m2 in 6 Std. -
Do, 20.06. 20:00 0.1 l/m2 in 12 Std. Regen
Do, 20.06. 14:00 0.1 l/m2 in 6 Std. Regen, Niederschlag
Do, 20.06. 8:00 0.0 l/m2 in 12 Std. -
Do, 20.06. 2:00 0.0 l/m2 in 6 Std. -
Ortszeit Niederschlagsmenge Niederschlagsart
Fr, 21.06. 23:30 2.7 l/m2 in 30 Min Schneeregen
Fr, 21.06. 23:20 keine Meldung -
Fr, 21.06. 23:10 keine Meldung -
Fr, 21.06. 23:00 1.1 l/m2 in 1 Std. Regen
Fr, 21.06. 22:50 keine Meldung -
Fr, 21.06. 22:40 keine Meldung -
Fr, 21.06. 22:30 <0.05 l/m2 in 30 Min Schneeregen
Fr, 21.06. 22:00 0.0 l/m2 in 1 Std. -
Fr, 21.06. 21:30 0.0 l/m2 in 30 Min -
Fr, 21.06. 21:00 0.0 l/m2 in 1 Std. -
Fr, 21.06. 20:30 0.0 l/m2 in 30 Min -
Ortszeit Stärke Spitze Richtung
km/h Bft. km/h Grad Sektor
Fr, 21.06. 20:00 7 2 40 260° W
Fr, 21.06. 14:00 14 3 32 230° SW
Fr, 21.06. 8:00 0 0 7 - -
Fr, 21.06. 2:00 4 1 11 240° SW
Do, 20.06. 20:00 7 2 18 320° NW
Do, 20.06. 14:00 6 1 15 190° S
Do, 20.06. 8:00 7 2 29 30° NO
Do, 20.06. 2:00 13 3 28 30° NO
Ortszeit Stärke Spitze Richtung
km/h Bft. km/h Grad Sektor
Fr, 21.06. 23:30 11 2 25 260° W
Fr, 21.06. 23:20 11 2 - 260° W
Fr, 21.06. 23:10 4 1 - 320° NW
Fr, 21.06. 23:00 15 3 31 310° NW
Fr, 21.06. 22:50 15 3 - 310° NW
Fr, 21.06. 22:40 11 2 - 260° W
Fr, 21.06. 22:30 14 3 29 290° W
Fr, 21.06. 22:00 7 2 18 240° SW
Fr, 21.06. 21:30 6 1 19 140° SO
Fr, 21.06. 21:00 14 3 36 270° W
Fr, 21.06. 20:30 11 2 25 330° NW
Ortszeit Untergrenze Bedeckung Gattung
total tief tief mittel hoch
Fr, 21.06. 20:00 3600 m 7/8 7/8 - - -
Fr, 21.06. 14:00 960 m 1/8 1/8 - - -
Fr, 21.06. 8:00 - 0/8 0/8 - - -
Fr, 21.06. 2:00 5400 m 7/8 7/8 - - -
Do, 20.06. 20:00 3900 m 7/8 7/8 - - -
Do, 20.06. 14:00 6000 m 5/8 5/8 - - -
Do, 20.06. 8:00 7500 m 7/8 0/8 - - -
Do, 20.06. 2:00 450 m 7/8 7/8 - - -
Ortszeit Bedeckungsgrad in Achtel und Wolkenuntergrenze
Fr, 21.06. 23:30 3(120m) 5(2100m) 7(2700m)
Fr, 21.06. 23:20 3(120m) 5(2100m) 7(2700m)
Fr, 21.06. 23:10 7
Fr, 21.06. 23:00 1(60m) 6(1140m) 8(1800m)
Fr, 21.06. 22:50 1(60m) 6(1140m) 8(1800m)
Fr, 21.06. 22:40 8
Fr, 21.06. 22:30 5(870m) 7(1800m) 8(2400m)
Fr, 21.06. 22:00 1(1290m) 6(2100m) 6(3600m)
Fr, 21.06. 21:30 keine Wolken
Fr, 21.06. 21:00 3(3300m)
Fr, 21.06. 20:30 6(3600m)
Ortszeit Luftdruck NN (hPa) Tendenz (hPa in 3 Std.)
Fr, 21.06. 20:00 1011 - 1,5
Fr, 21.06. 14:00 1012 0,0
Fr, 21.06. 8:00 1015 - 0,7
Fr, 21.06. 2:00 1017 - 1,3
Do, 20.06. 20:00 1016 - 0,5
Do, 20.06. 14:00 1017 - 1,3
Do, 20.06. 8:00 1021 + 0,4
Do, 20.06. 2:00 1019 + 0,8
Ortszeit Luftdruck NN (hPa) Tendenz (hPa in 3 Std.)
Fr, 21.06. 23:30 1013 + 1,0
Fr, 21.06. 23:20 1013 keine Meldung
Fr, 21.06. 23:10 1014 keine Meldung
Fr, 21.06. 23:00 1014 + 1,8
Fr, 21.06. 22:50 1014 keine Meldung
Fr, 21.06. 22:40 1014 keine Meldung
Fr, 21.06. 22:30 1013 + 1,0
Fr, 21.06. 22:00 1013 + 0,2
Fr, 21.06. 21:30 1012 - 1,5
Fr, 21.06. 21:00 1012 - 1,2
Fr, 21.06. 20:30 1011 - 1,1
Ortszeit Schneehöhe (cm)
Fr, 21.06. 20:00 0
Fr, 21.06. 14:00 0
Fr, 21.06. 8:00 0
Fr, 21.06. 2:00 0
Do, 20.06. 20:00 0
Do, 20.06. 14:00 0
Do, 20.06. 8:00 0
Do, 20.06. 2:00 0
Ortszeit Schneehöhe (cm)
Fr, 21.06. 23:30 0
Fr, 21.06. 23:20 0
Fr, 21.06. 23:10 -
Fr, 21.06. 23:00 0
Fr, 21.06. 22:50 0
Fr, 21.06. 22:40 -
Fr, 21.06. 22:30 0
Fr, 21.06. 22:00 0
Fr, 21.06. 21:30 0
Fr, 21.06. 21:00 0
Fr, 21.06. 20:30 0
Link zu dieser Seite / Seite empfehlen

Das Wetter in ...